Morro de La Bandera, Chile
Current Conditions -  °F | °C
As of 10:00 AM on Tuesday 21 Oct 2014 (Local Time) from SCEL Reporting Station
Clear Clear  
Wind Chill: 75°   Ceiling: Unl
Heat Index: 75°   Visibility: 6mi
Dew Point: 45°   Wind: 2mph
Humidity: 34%   Direction: NA
Pressure: 29.94"   Gusts: NA
Location:  33.28°S, 71.22°W
Report Text: SCEL 211400Z VRB02KT CAVOK 24/07 Q1014 NOSIG
Loading
Personal Weather Stations






























Interactive Weather Map
Tropical Storm Tracking
New forecast layout! Learn more

10-Day Weather Forecast

Advertisements
Track Severe Weather on mobile